sensor_id;sensor_type;location;lat;lon;timestamp;pressure;altitude;pressure_sealevel;temperature;humidity
76598;BME280;65486;53.144;18.134;2023-11-19T00:00:07;101728.41;;;-0.98;95.87
76598;BME280;65486;53.144;18.134;2023-11-19T00:03:01;101726.92;;;-1.06;95.70
76598;BME280;65486;53.144;18.134;2023-11-19T00:05:28;101720.09;;;-1.13;95.85
76598;BME280;65486;53.144;18.134;2023-11-19T00:07:55;101715.72;;;-1.21;95.79
76598;BME280;65486;53.144;18.134;2023-11-19T00:10:22;101716.48;;;-1.24;95.92
76598;BME280;65486;53.144;18.134;2023-11-19T00:12:49;101708.27;;;-1.30;96.23
76598;BME280;65486;53.144;18.134;2023-11-19T00:15:17;101702.91;;;-1.32;96.26
76598;BME280;65486;53.144;18.134;2023-11-19T00:17:46;101696.79;;;-1.35;96.40
76598;BME280;65486;53.144;18.134;2023-11-19T00:20:15;101696.30;;;-1.40;96.33
76598;BME280;65486;53.144;18.134;2023-11-19T00:22:43;101696.80;;;-1.44;96.22
76598;BME280;65486;53.144;18.134;2023-11-19T00:25:10;101693.52;;;-1.50;96.31
76598;BME280;65486;53.144;18.134;2023-11-19T00:27:37;101690.81;;;-1.54;96.46
76598;BME280;65486;53.144;18.134;2023-11-19T00:30:07;101695.63;;;-1.56;96.77
76598;BME280;65486;53.144;18.134;2023-11-19T00:32:35;101695.30;;;-1.56;96.97
76598;BME280;65486;53.144;18.134;2023-11-19T00:35:04;101694.20;;;-1.58;96.82
76598;BME280;65486;53.144;18.134;2023-11-19T00:37:31;101693.89;;;-1.61;96.75
76598;BME280;65486;53.144;18.134;2023-11-19T00:39:58;101687.86;;;-1.62;97.02
76598;BME280;65486;53.144;18.134;2023-11-19T00:42:25;101684.19;;;-1.64;96.96
76598;BME280;65486;53.144;18.134;2023-11-19T00:44:52;101678.10;;;-1.66;96.97
76598;BME280;65486;53.144;18.134;2023-11-19T00:47:19;101675.42;;;-1.65;97.37
76598;BME280;65486;53.144;18.134;2023-11-19T00:49:50;101671.33;;;-1.63;97.20
76598;BME280;65486;53.144;18.134;2023-11-19T00:52:17;101663.61;;;-1.63;97.07
76598;BME280;65486;53.144;18.134;2023-11-19T00:54:46;101656.66;;;-1.67;96.62
76598;BME280;65486;53.144;18.134;2023-11-19T00:57:13;101647.34;;;-1.72;96.59
76598;BME280;65486;53.144;18.134;2023-11-19T00:59:43;101644.94;;;-1.76;96.69
76598;BME280;65486;53.144;18.134;2023-11-19T01:02:11;101639.54;;;-1.78;96.91
76598;BME280;65486;53.144;18.134;2023-11-19T01:04:41;101635.83;;;-1.81;97.05
76598;BME280;65486;53.144;18.134;2023-11-19T01:07:08;101632.73;;;-1.83;96.94
76598;BME280;65486;53.144;18.134;2023-11-19T01:09:41;101628.20;;;-1.85;97.10
76598;BME280;65486;53.144;18.134;2023-11-19T01:12:10;101632.28;;;-1.86;97.06
76598;BME280;65486;53.144;18.134;2023-11-19T01:14:37;101630.77;;;-1.88;97.42
76598;BME280;65486;53.144;18.134;2023-11-19T01:17:04;101630.42;;;-1.88;97.38
76598;BME280;65486;53.144;18.134;2023-11-19T01:19:32;101624.84;;;-1.88;97.53
76598;BME280;65486;53.144;18.134;2023-11-19T01:21:59;101614.48;;;-1.89;97.45
76598;BME280;65486;53.144;18.134;2023-11-19T01:24:26;101606.59;;;-1.92;97.62
76598;BME280;65486;53.144;18.134;2023-11-19T01:26:55;101604.81;;;-1.94;97.61
76598;BME280;65486;53.144;18.134;2023-11-19T01:29:24;101603.67;;;-1.96;97.91
76598;BME280;65486;53.144;18.134;2023-11-19T01:31:51;101608.95;;;-1.96;97.85
76598;BME280;65486;53.144;18.134;2023-11-19T01:34:19;101607.03;;;-1.97;97.91
76598;BME280;65486;53.144;18.134;2023-11-19T01:36:46;101608.50;;;-1.98;97.96
76598;BME280;65486;53.144;18.134;2023-11-19T01:39:15;101608.91;;;-1.98;97.91
76598;BME280;65486;53.144;18.134;2023-11-19T01:41:47;101608.25;;;-1.99;98.19
76598;BME280;65486;53.144;18.134;2023-11-19T01:44:14;101598.82;;;-1.98;98.04
76598;BME280;65486;53.144;18.134;2023-11-19T01:46:44;101594.37;;;-1.99;98.18
76598;BME280;65486;53.144;18.134;2023-11-19T01:49:16;101586.19;;;-2.00;98.06
76598;BME280;65486;53.144;18.134;2023-11-19T01:51:45;101574.61;;;-2.02;97.95
76598;BME280;65486;53.144;18.134;2023-11-19T01:54:14;101564.55;;;-2.02;97.86
76598;BME280;65486;53.144;18.134;2023-11-19T01:56:42;101557.70;;;-2.02;98.11
76598;BME280;65486;53.144;18.134;2023-11-19T01:59:11;101547.92;;;-2.02;98.14
76598;BME280;65486;53.144;18.134;2023-11-19T02:01:41;101539.39;;;-2.03;98.01
76598;BME280;65486;53.144;18.134;2023-11-19T02:04:10;101531.14;;;-2.03;98.28
76598;BME280;65486;53.144;18.134;2023-11-19T02:06:40;101525.90;;;-2.03;98.29
76598;BME280;65486;53.144;18.134;2023-11-19T02:09:08;101522.81;;;-2.03;98.28
76598;BME280;65486;53.144;18.134;2023-11-19T02:11:35;101518.12;;;-2.03;98.30
76598;BME280;65486;53.144;18.134;2023-11-19T02:14:02;101511.66;;;-2.03;98.25
76598;BME280;65486;53.144;18.134;2023-11-19T02:16:31;101514.11;;;-2.02;98.26
76598;BME280;65486;53.144;18.134;2023-11-19T02:18:58;101509.95;;;-2.02;98.43
76598;BME280;65486;53.144;18.134;2023-11-19T02:21:24;101513.71;;;-2.02;98.29
76598;BME280;65486;53.144;18.134;2023-11-19T02:23:51;101517.36;;;-2.00;98.59
76598;BME280;65486;53.144;18.134;2023-11-19T02:26:33;101512.80;;;-2.00;98.49
76598;BME280;65486;53.144;18.134;2023-11-19T02:29:03;101500.34;;;-1.99;98.63
76598;BME280;65486;53.144;18.134;2023-11-19T02:31:30;101485.90;;;-1.99;98.61
76598;BME280;65486;53.144;18.134;2023-11-19T02:33:57;101479.09;;;-1.99;98.47
76598;BME280;65486;53.144;18.134;2023-11-19T02:36:24;101476.17;;;-2.01;98.47
76598;BME280;65486;53.144;18.134;2023-11-19T02:38:51;101478.46;;;-2.03;98.22
76598;BME280;65486;53.144;18.134;2023-11-19T02:41:17;101481.39;;;-2.03;98.62
76598;BME280;65486;53.144;18.134;2023-11-19T02:43:45;101473.06;;;-2.03;98.37
76598;BME280;65486;53.144;18.134;2023-11-19T02:46:11;101463.92;;;-2.03;98.32
76598;BME280;65486;53.144;18.134;2023-11-19T02:48:38;101452.95;;;-2.03;98.26
76598;BME280;65486;53.144;18.134;2023-11-19T02:51:06;101445.31;;;-2.02;98.29
76598;BME280;65486;53.144;18.134;2023-11-19T02:53:36;101438.73;;;-2.01;98.64
76598;BME280;65486;53.144;18.134;2023-11-19T02:56:06;101433.44;;;-2.03;98.49
76598;BME280;65486;53.144;18.134;2023-11-19T02:58:52;101434.57;;;-2.01;98.75
76598;BME280;65486;53.144;18.134;2023-11-19T03:01:26;101432.80;;;-2.00;98.55
76598;BME280;65486;53.144;18.134;2023-11-19T03:03:57;101418.37;;;-1.97;98.48
76598;BME280;65486;53.144;18.134;2023-11-19T03:06:25;101410.88;;;-1.96;98.63
76598;BME280;65486;53.144;18.134;2023-11-19T03:08:54;101404.35;;;-1.93;98.43
76598;BME280;65486;53.144;18.134;2023-11-19T03:11:21;101403.70;;;-1.90;98.57
76598;BME280;65486;53.144;18.134;2023-11-19T03:13:48;101408.88;;;-1.87;98.38
76598;BME280;65486;53.144;18.134;2023-11-19T03:16:15;101408.23;;;-1.86;98.47
76598;BME280;65486;53.144;18.134;2023-11-19T03:18:43;101404.42;;;-1.83;98.78
76598;BME280;65486;53.144;18.134;2023-11-19T03:21:10;101397.45;;;-1.82;98.74
76598;BME280;65486;53.144;18.134;2023-11-19T03:23:37;101390.98;;;-1.80;98.47
76598;BME280;65486;53.144;18.134;2023-11-19T03:26:05;101384.05;;;-1.77;98.39
76598;BME280;65486;53.144;18.134;2023-11-19T03:28:34;101371.91;;;-1.76;98.37
76598;BME280;65486;53.144;18.134;2023-11-19T03:31:01;101364.00;;;-1.72;98.35
76598;BME280;65486;53.144;18.134;2023-11-19T03:33:28;101351.64;;;-1.71;98.21
76598;BME280;65486;53.144;18.134;2023-11-19T03:35:56;101343.06;;;-1.67;98.38
76598;BME280;65486;53.144;18.134;2023-11-19T03:38:24;101329.45;;;-1.64;98.62
76598;BME280;65486;53.144;18.134;2023-11-19T03:40:54;101326.50;;;-1.63;98.22
76598;BME280;65486;53.144;18.134;2023-11-19T03:43:21;101318.98;;;-1.64;98.20
76598;BME280;65486;53.144;18.134;2023-11-19T03:45:48;101315.51;;;-1.63;98.31
76598;BME280;65486;53.144;18.134;2023-11-19T03:48:15;101313.42;;;-1.64;98.35
76598;BME280;65486;53.144;18.134;2023-11-19T03:50:45;101310.98;;;-1.63;98.19
76598;BME280;65486;53.144;18.134;2023-11-19T03:53:12;101311.30;;;-1.63;98.20
76598;BME280;65486;53.144;18.134;2023-11-19T03:55:41;101311.23;;;-1.62;98.40
76598;BME280;65486;53.144;18.134;2023-11-19T03:58:08;101308.97;;;-1.61;98.30
76598;BME280;65486;53.144;18.134;2023-11-19T04:00:35;101306.75;;;-1.60;97.99
76598;BME280;65486;53.144;18.134;2023-11-19T04:03:02;101306.02;;;-1.60;98.16
76598;BME280;65486;53.144;18.134;2023-11-19T04:05:30;101302.00;;;-1.59;97.88
76598;BME280;65486;53.144;18.134;2023-11-19T04:07:57;101296.13;;;-1.58;98.17
76598;BME280;65486;53.144;18.134;2023-11-19T04:10:24;101295.31;;;-1.57;98.20
76598;BME280;65486;53.144;18.134;2023-11-19T04:12:50;101289.49;;;-1.57;97.87
76598;BME280;65486;53.144;18.134;2023-11-19T04:15:18;101286.56;;;-1.56;98.16
76598;BME280;65486;53.144;18.134;2023-11-19T04:17:45;101285.13;;;-1.54;98.11
76598;BME280;65486;53.144;18.134;2023-11-19T04:20:12;101283.80;;;-1.51;98.02
76598;BME280;65486;53.144;18.134;2023-11-19T04:22:43;101280.94;;;-1.48;97.98
76598;BME280;65486;53.144;18.134;2023-11-19T04:25:10;101271.33;;;-1.45;97.93
76598;BME280;65486;53.144;18.134;2023-11-19T04:27:40;101263.23;;;-1.43;97.81
76598;BME280;65486;53.144;18.134;2023-11-19T04:30:09;101257.47;;;-1.41;97.76
76598;BME280;65486;53.144;18.134;2023-11-19T04:32:38;101248.71;;;-1.40;97.49
76598;BME280;65486;53.144;18.134;2023-11-19T04:35:05;101243.99;;;-1.40;97.58
76598;BME280;65486;53.144;18.134;2023-11-19T04:37:33;101248.77;;;-1.37;97.98
76598;BME280;65486;53.144;18.134;2023-11-19T04:40:01;101252.30;;;-1.34;97.82
76598;BME280;65486;53.144;18.134;2023-11-19T04:42:28;101250.54;;;-1.32;97.55
76598;BME280;65486;53.144;18.134;2023-11-19T04:44:57;101242.77;;;-1.32;97.60
76598;BME280;65486;53.144;18.134;2023-11-19T04:47:24;101240.33;;;-1.31;97.52
76598;BME280;65486;53.144;18.134;2023-11-19T04:49:51;101229.44;;;-1.30;97.59
76598;BME280;65486;53.144;18.134;2023-11-19T04:52:18;101219.52;;;-1.28;97.76
76598;BME280;65486;53.144;18.134;2023-11-19T04:54:45;101215.83;;;-1.25;97.50
76598;BME280;65486;53.144;18.134;2023-11-19T04:57:12;101208.38;;;-1.24;97.41
76598;BME280;65486;53.144;18.134;2023-11-19T04:59:39;101198.84;;;-1.25;97.38
76598;BME280;65486;53.144;18.134;2023-11-19T05:02:06;101193.16;;;-1.25;97.39
76598;BME280;65486;53.144;18.134;2023-11-19T05:04:33;101186.59;;;-1.27;97.47
76598;BME280;65486;53.144;18.134;2023-11-19T05:07:00;101187.63;;;-1.26;97.37
76598;BME280;65486;53.144;18.134;2023-11-19T05:09:27;101181.60;;;-1.25;97.46
76598;BME280;65486;53.144;18.134;2023-11-19T05:11:53;101176.26;;;-1.24;97.44
76598;BME280;65486;53.144;18.134;2023-11-19T05:14:20;101169.10;;;-1.23;97.58
76598;BME280;65486;53.144;18.134;2023-11-19T05:16:49;101160.77;;;-1.20;97.49
76598;BME280;65486;53.144;18.134;2023-11-19T05:19:16;101161.23;;;-1.20;97.19
76598;BME280;65486;53.144;18.134;2023-11-19T05:21:43;101164.50;;;-1.18;97.33
76598;BME280;65486;53.144;18.134;2023-11-19T05:24:10;101157.13;;;-1.16;97.25
76598;BME280;65486;53.144;18.134;2023-11-19T05:26:38;101153.64;;;-1.13;97.40
76598;BME280;65486;53.144;18.134;2023-11-19T05:29:05;101149.01;;;-1.13;97.41
76598;BME280;65486;53.144;18.134;2023-11-19T05:31:32;101145.14;;;-1.09;97.28
76598;BME280;65486;53.144;18.134;2023-11-19T05:33:59;101142.63;;;-1.08;97.39
76598;BME280;65486;53.144;18.134;2023-11-19T05:36:26;101134.85;;;-1.06;97.31
76598;BME280;65486;53.144;18.134;2023-11-19T05:38:55;101133.22;;;-1.03;97.17
76598;BME280;65486;53.144;18.134;2023-11-19T05:41:22;101131.15;;;-1.01;97.15
76598;BME280;65486;53.144;18.134;2023-11-19T05:43:49;101133.18;;;-0.97;97.18
76598;BME280;65486;53.144;18.134;2023-11-19T05:46:16;101135.48;;;-0.95;97.24
76598;BME280;65486;53.144;18.134;2023-11-19T05:48:43;101126.73;;;-0.94;97.25
76598;BME280;65486;53.144;18.134;2023-11-19T05:51:12;101123.83;;;-0.94;97.13
76598;BME280;65486;53.144;18.134;2023-11-19T05:53:39;101127.01;;;-0.91;97.10
76598;BME280;65486;53.144;18.134;2023-11-19T05:56:06;101126.46;;;-0.89;97.12
76598;BME280;65486;53.144;18.134;2023-11-19T05:58:36;101125.02;;;-0.87;97.01
76598;BME280;65486;53.144;18.134;2023-11-19T06:01:04;101117.73;;;-0.86;96.96
76598;BME280;65486;53.144;18.134;2023-11-19T06:03:33;101111.54;;;-0.86;96.97
76598;BME280;65486;53.144;18.134;2023-11-19T06:06:01;101110.75;;;-0.85;97.03
76598;BME280;65486;53.144;18.134;2023-11-19T06:08:28;101105.83;;;-0.82;97.06
76598;BME280;65486;53.144;18.134;2023-11-19T06:10:56;101109.23;;;-0.80;96.97
76598;BME280;65486;53.144;18.134;2023-11-19T06:13:23;101103.69;;;-0.79;96.77
76598;BME280;65486;53.144;18.134;2023-11-19T06:15:50;101095.90;;;-0.76;96.93
76598;BME280;65486;53.144;18.134;2023-11-19T06:18:17;101087.61;;;-0.75;96.83
76598;BME280;65486;53.144;18.134;2023-11-19T06:20:46;101080.61;;;-0.73;96.76
76598;BME280;65486;53.144;18.134;2023-11-19T06:23:13;101072.53;;;-0.72;96.65
76598;BME280;65486;53.144;18.134;2023-11-19T06:25:41;101074.27;;;-0.71;96.70
76598;BME280;65486;53.144;18.134;2023-11-19T06:28:07;101074.77;;;-0.68;96.77
76598;BME280;65486;53.144;18.134;2023-11-19T06:30:35;101063.11;;;-0.67;96.47
76598;BME280;65486;53.144;18.134;2023-11-19T06:33:02;101053.36;;;-0.66;96.72
76598;BME280;65486;53.144;18.134;2023-11-19T06:35:30;101049.55;;;-0.66;96.41
76598;BME280;65486;53.144;18.134;2023-11-19T06:38:04;101038.58;;;-0.64;96.48
76598;BME280;65486;53.144;18.134;2023-11-19T06:40:32;101028.06;;;-0.64;96.52
76598;BME280;65486;53.144;18.134;2023-11-19T06:42:59;101020.11;;;-0.63;96.45
76598;BME280;65486;53.144;18.134;2023-11-19T06:45:26;101014.50;;;-0.63;96.24
76598;BME280;65486;53.144;18.134;2023-11-19T06:47:56;101020.73;;;-0.64;96.33
76598;BME280;65486;53.144;18.134;2023-11-19T06:50:32;101020.52;;;-0.64;96.28
76598;BME280;65486;53.144;18.134;2023-11-19T06:53:00;101020.63;;;-0.63;96.20
76598;BME280;65486;53.144;18.134;2023-11-19T06:55:27;101015.48;;;-0.62;96.31
76598;BME280;65486;53.144;18.134;2023-11-19T06:57:55;101003.77;;;-0.62;96.43
76598;BME280;65486;53.144;18.134;2023-11-19T07:00:23;101000.58;;;-0.61;96.45
76598;BME280;65486;53.144;18.134;2023-11-19T07:02:50;100994.70;;;-0.60;96.28
76598;BME280;65486;53.144;18.134;2023-11-19T07:05:17;100991.45;;;-0.58;96.35
76598;BME280;65486;53.144;18.134;2023-11-19T07:07:44;100990.10;;;-0.56;96.04
76598;BME280;65486;53.144;18.134;2023-11-19T07:10:13;100980.21;;;-0.52;96.06
76598;BME280;65486;53.144;18.134;2023-11-19T07:12:42;100977.73;;;-0.49;95.84
76598;BME280;65486;53.144;18.134;2023-11-19T07:15:13;100973.95;;;-0.47;95.80
76598;BME280;65486;53.144;18.134;2023-11-19T07:17:40;100972.67;;;-0.46;95.89
76598;BME280;65486;53.144;18.134;2023-11-19T07:20:09;100970.42;;;-0.42;96.03
76598;BME280;65486;53.144;18.134;2023-11-19T07:22:43;100964.67;;;-0.39;96.12
76598;BME280;65486;53.144;18.134;2023-11-19T07:25:15;100960.81;;;-0.35;95.86
76598;BME280;65486;53.144;18.134;2023-11-19T07:27:42;100960.09;;;-0.33;95.88
76598;BME280;65486;53.144;18.134;2023-11-19T07:30:10;100960.04;;;-0.32;95.69
76598;BME280;65486;53.144;18.134;2023-11-19T07:32:39;100953.42;;;-0.31;95.51
76598;BME280;65486;53.144;18.134;2023-11-19T07:35:06;100953.59;;;-0.31;95.59
76598;BME280;65486;53.144;18.134;2023-11-19T07:37:36;100949.09;;;-0.31;95.71
76598;BME280;65486;53.144;18.134;2023-11-19T07:40:03;100947.73;;;-0.30;95.52
76598;BME280;65486;53.144;18.134;2023-11-19T07:42:31;100945.88;;;-0.30;95.50
76598;BME280;65486;53.144;18.134;2023-11-19T07:44:58;100944.23;;;-0.30;95.22
76598;BME280;65486;53.144;18.134;2023-11-19T07:47:26;100941.23;;;-0.28;95.29
76598;BME280;65486;53.144;18.134;2023-11-19T07:49:58;100934.48;;;-0.26;95.41
76598;BME280;65486;53.144;18.134;2023-11-19T07:52:26;100933.64;;;-0.23;95.25
76598;BME280;65486;53.144;18.134;2023-11-19T07:54:54;100930.80;;;-0.22;95.26
76598;BME280;65486;53.144;18.134;2023-11-19T07:57:21;100925.45;;;-0.19;95.35
76598;BME280;65486;53.144;18.134;2023-11-19T07:59:50;100918.61;;;-0.17;95.22
76598;BME280;65486;53.144;18.134;2023-11-19T08:02:19;100910.70;;;-0.16;95.24
76598;BME280;65486;53.144;18.134;2023-11-19T08:04:53;100908.38;;;-0.12;95.14
76598;BME280;65486;53.144;18.134;2023-11-19T08:07:26;100900.41;;;-0.09;95.06
76598;BME280;65486;53.144;18.134;2023-11-19T08:09:54;100885.88;;;-0.12;95.04
76598;BME280;65486;53.144;18.134;2023-11-19T08:12:21;100895.60;;;-0.00;94.77
76598;BME280;65486;53.144;18.134;2023-11-19T08:14:48;100890.33;;;0.00;94.55
76598;BME280;65486;53.144;18.134;2023-11-19T08:17:15;100881.23;;;0.01;94.59
76598;BME280;65486;53.144;18.134;2023-11-19T08:19:43;100877.06;;;0.03;94.42
76598;BME280;65486;53.144;18.134;2023-11-19T08:22:10;100875.09;;;0.05;94.31
76598;BME280;65486;53.144;18.134;2023-11-19T08:24:37;100871.27;;;0.05;93.90
76598;BME280;65486;53.144;18.134;2023-11-19T08:27:04;100865.88;;;0.06;94.07
76598;BME280;65486;53.144;18.134;2023-11-19T08:29:31;100859.40;;;0.08;94.08
76598;BME280;65486;53.144;18.134;2023-11-19T08:32:00;100854.97;;;0.09;94.10
76598;BME280;65486;53.144;18.134;2023-11-19T08:34:30;100845.84;;;0.10;93.97
76598;BME280;65486;53.144;18.134;2023-11-19T08:36:57;100841.59;;;0.11;93.99
76598;BME280;65486;53.144;18.134;2023-11-19T08:39:25;100838.42;;;0.11;94.04
76598;BME280;65486;53.144;18.134;2023-11-19T08:41:51;100835.64;;;0.14;93.91
76598;BME280;65486;53.144;18.134;2023-11-19T08:44:22;100832.21;;;0.14;93.70
76598;BME280;65486;53.144;18.134;2023-11-19T08:46:52;100828.77;;;0.12;93.93
76598;BME280;65486;53.144;18.134;2023-11-19T08:49:23;100831.05;;;0.13;93.96
76598;BME280;65486;53.144;18.134;2023-11-19T08:51:51;100820.05;;;0.16;94.02
76598;BME280;65486;53.144;18.134;2023-11-19T08:54:19;100812.41;;;0.17;93.24
76598;BME280;65486;53.144;18.134;2023-11-19T08:56:57;100805.66;;;0.15;93.54
76598;BME280;65486;53.144;18.134;2023-11-19T08:59:31;100797.16;;;0.17;93.50
76598;BME280;65486;53.144;18.134;2023-11-19T09:01:59;100793.64;;;0.20;93.17
76598;BME280;65486;53.144;18.134;2023-11-19T09:04:26;100792.86;;;0.20;93.11
76598;BME280;65486;53.144;18.134;2023-11-19T09:06:53;100791.16;;;0.21;93.14
76598;BME280;65486;53.144;18.134;2023-11-19T09:09:20;100788.08;;;0.25;93.53
76598;BME280;65486;53.144;18.134;2023-11-19T09:11:53;100784.38;;;0.29;93.86
76598;BME280;65486;53.144;18.134;2023-11-19T09:14:21;100781.05;;;0.35;93.49
76598;BME280;65486;53.144;18.134;2023-11-19T09:16:57;100774.61;;;0.43;93.77
76598;BME280;65486;53.144;18.134;2023-11-19T09:19:27;100771.85;;;0.52;93.30
76598;BME280;65486;53.144;18.134;2023-11-19T09:21:54;100766.59;;;0.56;93.08
76598;BME280;65486;53.144;18.134;2023-11-19T09:24:25;100762.85;;;0.59;92.83
76598;BME280;65486;53.144;18.134;2023-11-19T09:27:10;100752.42;;;0.61;92.86
76598;BME280;65486;53.144;18.134;2023-11-19T09:29:38;100750.42;;;0.65;92.98
76598;BME280;65486;53.144;18.134;2023-11-19T09:32:06;100746.09;;;0.67;92.80
76598;BME280;65486;53.144;18.134;2023-11-19T09:34:36;100741.52;;;0.67;92.52
76598;BME280;65486;53.144;18.134;2023-11-19T09:37:10;100738.64;;;0.70;92.70
76598;BME280;65486;53.144;18.134;2023-11-19T09:39:46;100728.98;;;0.80;93.07
76598;BME280;65486;53.144;18.134;2023-11-19T09:43:04;100727.81;;;0.87;92.91
76598;BME280;65486;53.144;18.134;2023-11-19T09:45:47;100708.52;;;0.90;92.97
76598;BME280;65486;53.144;18.134;2023-11-19T09:48:19;100711.19;;;1.04;92.97
76598;BME280;65486;53.144;18.134;2023-11-19T09:50:49;100700.09;;;1.06;92.55
76598;BME280;65486;53.144;18.134;2023-11-19T09:53:19;100691.20;;;1.07;92.05
76598;BME280;65486;53.144;18.134;2023-11-19T09:55:53;100685.59;;;1.08;92.38
76598;BME280;65486;53.144;18.134;2023-11-19T09:58:30;100680.46;;;1.07;91.47
76598;BME280;65486;53.144;18.134;2023-11-19T10:01:06;100675.23;;;1.05;91.87
76598;BME280;65486;53.144;18.134;2023-11-19T10:03:40;100674.98;;;1.04;92.15
76598;BME280;65486;53.144;18.134;2023-11-19T10:06:10;100670.60;;;1.03;91.73
76598;BME280;65486;53.144;18.134;2023-11-19T10:08:41;100665.42;;;0.99;92.14
76598;BME280;65486;53.144;18.134;2023-11-19T10:11:12;100658.54;;;0.95;92.33
76598;BME280;65486;53.144;18.134;2023-11-19T10:13:41;100652.88;;;0.92;92.31
76598;BME280;65486;53.144;18.134;2023-11-19T10:16:12;100639.70;;;0.89;92.79
76598;BME280;65486;53.144;18.134;2023-11-19T10:18:49;100628.69;;;0.91;93.01
76598;BME280;65486;53.144;18.134;2023-11-19T10:21:32;100628.04;;;0.93;93.45
76598;BME280;65486;53.144;18.134;2023-11-19T10:24:00;100624.29;;;0.98;93.33
76598;BME280;65486;53.144;18.134;2023-11-19T10:26:27;100622.17;;;1.02;93.31
76598;BME280;65486;53.144;18.134;2023-11-19T10:29:06;100615.42;;;1.06;92.90
76598;BME280;65486;53.144;18.134;2023-11-19T10:31:56;100612.55;;;1.07;92.78
76598;BME280;65486;53.144;18.134;2023-11-19T10:34:29;100607.42;;;1.07;92.81
76598;BME280;65486;53.144;18.134;2023-11-19T10:36:58;100607.48;;;1.07;92.72
76598;BME280;65486;53.144;18.134;2023-11-19T10:39:56;100610.83;;;1.06;92.83
76598;BME280;65486;53.144;18.134;2023-11-19T10:42:29;100607.89;;;1.05;92.85
76598;BME280;65486;53.144;18.134;2023-11-19T10:44:58;100606.59;;;1.02;92.70
76598;BME280;65486;53.144;18.134;2023-11-19T10:47:27;100599.09;;;1.03;93.34
76598;BME280;65486;53.144;18.134;2023-11-19T10:49:58;100593.57;;;1.05;93.30
76598;BME280;65486;53.144;18.134;2023-11-19T10:52:27;100592.23;;;1.04;93.07
76598;BME280;65486;53.144;18.134;2023-11-19T10:54:57;100591.35;;;1.04;93.36
76598;BME280;65486;53.144;18.134;2023-11-19T10:57:30;100583.08;;;1.04;93.55
76598;BME280;65486;53.144;18.134;2023-11-19T11:00:01;100581.34;;;1.03;93.77
76598;BME280;65486;53.144;18.134;2023-11-19T11:02:41;100576.65;;;1.03;93.67
76598;BME280;65486;53.144;18.134;2023-11-19T11:05:13;100574.71;;;1.01;93.38
76598;BME280;65486;53.144;18.134;2023-11-19T11:07:46;100575.67;;;0.97;93.93
76598;BME280;65486;53.144;18.134;2023-11-19T11:10:16;100570.39;;;0.94;94.07
76598;BME280;65486;53.144;18.134;2023-11-19T11:12:44;100565.94;;;0.93;94.03
76598;BME280;65486;53.144;18.134;2023-11-19T11:15:14;100553.83;;;0.95;94.36
76598;BME280;65486;53.144;18.134;2023-11-19T11:17:50;100546.30;;;0.92;94.42
76598;BME280;65486;53.144;18.134;2023-11-19T11:20:30;100543.77;;;0.89;94.58
76598;BME280;65486;53.144;18.134;2023-11-19T11:23:37;100538.78;;;0.88;94.74
76598;BME280;65486;53.144;18.134;2023-11-19T11:32:00;100508.85;;;0.84;95.12
76598;BME280;65486;53.144;18.134;2023-11-19T11:37:55;100496.90;;;0.79;95.19
76598;BME280;65486;53.144;18.134;2023-11-19T11:40:27;100492.59;;;0.75;95.44
76598;BME280;65486;53.144;18.134;2023-11-19T11:42:55;100484.23;;;0.67;95.69
76598;BME280;65486;53.144;18.134;2023-11-19T11:45:39;100473.96;;;0.62;95.71
76598;BME280;65486;53.144;18.134;2023-11-19T11:48:15;100466.44;;;0.57;95.75
76598;BME280;65486;53.144;18.134;2023-11-19T11:50:54;100457.52;;;0.52;96.30
76598;BME280;65486;53.144;18.134;2023-11-19T11:53:25;100444.86;;;0.47;96.24
76598;BME280;65486;53.144;18.134;2023-11-19T11:55:56;100443.55;;;0.43;96.57
76598;BME280;65486;53.144;18.134;2023-11-19T11:58:35;100444.35;;;0.39;96.70
76598;BME280;65486;53.144;18.134;2023-11-19T12:01:06;100439.96;;;0.35;96.61
76598;BME280;65486;53.144;18.134;2023-11-19T12:03:39;100440.46;;;0.31;97.01
76598;BME280;65486;53.144;18.134;2023-11-19T12:06:10;100439.13;;;0.28;97.45
76598;BME280;65486;53.144;18.134;2023-11-19T12:08:38;100433.42;;;0.24;97.41
76598;BME280;65486;53.144;18.134;2023-11-19T12:11:08;100424.16;;;0.21;97.66
76598;BME280;65486;53.144;18.134;2023-11-19T12:14:03;100420.02;;;0.20;97.78
76598;BME280;65486;53.144;18.134;2023-11-19T12:16:44;100414.64;;;0.19;97.93
76598;BME280;65486;53.144;18.134;2023-11-19T12:19:15;100412.67;;;0.19;97.60
76598;BME280;65486;53.144;18.134;2023-11-19T12:21:53;100403.52;;;0.18;97.85
76598;BME280;65486;53.144;18.134;2023-11-19T12:24:43;100383.10;;;0.17;97.88
76598;BME280;65486;53.144;18.134;2023-11-19T12:27:13;100376.87;;;0.14;98.07
76598;BME280;65486;53.144;18.134;2023-11-19T12:29:49;100372.82;;;0.12;98.28
76598;BME280;65486;53.144;18.134;2023-11-19T12:32:22;100362.96;;;0.09;98.05
76598;BME280;65486;53.144;18.134;2023-11-19T12:34:51;100359.66;;;0.08;98.39
76598;BME280;65486;53.144;18.134;2023-11-19T12:37:19;100356.75;;;0.08;98.64
76598;BME280;65486;53.144;18.134;2023-11-19T12:39:48;100360.75;;;0.08;98.64
76598;BME280;65486;53.144;18.134;2023-11-19T12:42:19;100356.84;;;0.06;98.57
76598;BME280;65486;53.144;18.134;2023-11-19T12:44:56;100352.89;;;0.04;99.03
76598;BME280;65486;53.144;18.134;2023-11-19T12:47:26;100355.18;;;0.03;99.04
76598;BME280;65486;53.144;18.134;2023-11-19T12:49:57;100365.27;;;0.03;98.74
76598;BME280;65486;53.144;18.134;2023-11-19T12:52:25;100368.49;;;0.02;98.82
76598;BME280;65486;53.144;18.134;2023-11-19T12:54:53;100369.46;;;-0.01;99.38
76598;BME280;65486;53.144;18.134;2023-11-19T12:57:20;100366.17;;;-0.03;99.11
76598;BME280;65486;53.144;18.134;2023-11-19T12:59:56;100360.96;;;-0.03;99.16
76598;BME280;65486;53.144;18.134;2023-11-19T13:02:47;100347.38;;;-0.02;99.29
76598;BME280;65486;53.144;18.134;2023-11-19T13:05:30;100349.11;;;-0.02;99.24